Time;durP1;ratioP1;P1;durP2;ratioP2;P2;SDS_P1;SDS_P2;PMS_P1;PMS_P2;Temp;Humidity;BMP_temperature;BMP_pressure;BME280_temperature;BME280_humidity;BME280_pressure;Samples;Min_cycle;Max_cycle;Signal;HPM_P1;HPM_P2
2021/04/22 00:00:17;;;;;;;46.92;19.73;;;;;;;9.53;72.22;101841.59;5051846;28;20139;-49
2021/04/22 00:02:44;;;;;;;29.77;16.63;;;;;;;9.52;72.31;101845.50;5051343;28;20044;-47
2021/04/22 00:05:23;;;;;;;36.03;17.33;;;;;;;9.47;72.23;101848.38;5051351;28;20044;-50
2021/04/22 00:07:51;;;;;;;39.58;18.30;;;;;;;9.46;72.21;101843.97;5064010;28;20472;-48
2021/04/22 00:10:22;;;;;;;33.10;17.17;;;;;;;9.45;72.17;101847.06;5061623;28;20487;-49
2021/04/22 00:12:49;;;;;;;35.75;18.05;;;;;;;9.48;72.13;101860.22;5056839;28;20044;-48
2021/04/22 00:15:18;;;;;;;32.80;16.40;;;;;;;9.45;72.16;101850.59;5055828;28;20044;-47
2021/04/22 00:17:45;;;;;;;37.42;15.80;;;;;;;9.44;72.15;101850.94;5057388;28;20454;-49
2021/04/22 00:20:13;;;;;;;36.50;17.45;;;;;;;9.38;72.42;101853.00;5070147;28;20502;-48
2021/04/22 00:22:40;;;;;;;37.58;18.08;;;;;;;9.39;72.40;101854.63;5071305;28;20400;-49
2021/04/22 00:25:07;;;;;;;34.85;16.67;;;;;;;9.42;72.48;101853.19;5062759;28;20561;-48
2021/04/22 00:27:33;;;;;;;34.88;17.85;;;;;;;9.46;72.52;101862.50;5066787;28;20465;-47
2021/04/22 00:30:01;;;;;;;42.80;18.50;;;;;;;9.44;72.51;101854.53;5051608;28;20041;-50
2021/04/22 00:32:27;;;;;;;34.25;17.65;;;;;;;9.43;72.57;101863.09;5050013;28;20120;-48
2021/04/22 00:34:53;;;;;;;36.60;17.65;;;;;;;9.44;72.65;101859.22;5050839;28;20048;-49
2021/04/22 00:37:20;;;;;;;34.97;18.25;;;;;;;9.41;72.72;101865.38;5050753;28;20064;-49
2021/04/22 00:39:46;;;;;;;41.38;18.70;;;;;;;9.37;72.87;101867.13;5050115;28;20444;-48
2021/04/22 00:42:12;;;;;;;43.03;18.75;;;;;;;9.31;73.05;101866.44;5050187;28;20487;-48
2021/04/22 00:44:39;;;;;;;43.90;17.23;;;;;;;9.27;73.25;101870.09;5049862;28;20459;-47
2021/04/22 00:47:07;;;;;;;35.42;18.02;;;;;;;9.26;73.37;101869.31;5058068;28;20695;-49
2021/04/22 00:49:33;;;;;;;41.42;18.77;;;;;;;9.25;73.14;101866.81;5050972;28;20045;-50
2021/04/22 00:52:01;;;;;;;43.28;17.08;;;;;;;9.22;73.28;101865.50;5064083;28;20376;-48
2021/04/22 00:54:28;;;;;;;43.15;19.60;;;;;;;9.24;73.32;101879.03;5051359;28;20417;-47
2021/04/22 00:56:54;;;;;;;46.40;18.90;;;;;;;9.26;73.20;101874.81;5049967;28;20068;-49
2021/04/22 00:59:20;;;;;;;32.85;18.02;;;;;;;9.24;73.29;101866.00;5051733;28;20079;-48
2021/04/22 01:01:46;;;;;;;45.35;20.23;;;;;;;9.24;73.33;101870.75;5068599;28;20059;-47
2021/04/22 01:04:13;;;;;;;36.65;18.00;;;;;;;9.22;73.27;101886.78;5050562;28;20064;-49
2021/04/22 01:06:40;;;;;;;35.88;17.13;;;;;;;9.24;73.08;101870.75;5050972;28;20044;-48
2021/04/22 01:09:09;;;;;;;35.78;18.35;;;;;;;9.22;73.30;101872.97;5060195;28;20475;-49
2021/04/22 01:11:35;;;;;;;38.67;18.77;;;;;;;9.22;73.17;101872.97;5068724;28;20135;-47
2021/04/22 01:14:01;;;;;;;36.35;20.13;;;;;;;9.24;72.97;101870.75;5050400;28;20045;-48
2021/04/22 01:16:28;;;;;;;41.38;19.02;;;;;;;9.26;73.17;101874.00;5050626;28;20099;-49
2021/04/22 01:18:54;;;;;;;41.50;18.98;;;;;;;9.24;72.96;101890.06;5050755;28;20079;-50
2021/04/22 01:21:24;;;;;;;41.58;18.17;;;;;;;9.18;73.19;101881.91;5051512;28;20150;-50
2021/04/22 01:23:51;;;;;;;47.08;19.98;;;;;;;9.13;73.17;101879.22;5053437;28;20148;-48
2021/04/22 01:26:23;;;;;;;39.50;18.65;;;;;;;9.11;73.63;101881.47;5050582;28;20152;-47
2021/04/22 01:28:51;;;;;;;41.70;19.17;;;;;;;9.10;73.51;101874.34;5050435;28;20441;-48
2021/04/22 01:31:18;;;;;;;40.15;20.58;;;;;;;9.05;73.58;101885.47;5050812;28;20049;-49
2021/04/22 01:33:44;;;;;;;36.15;18.20;;;;;;;9.03;73.85;101884.94;5051390;28;20048;-47
2021/04/22 01:36:11;;;;;;;36.08;17.25;;;;;;;9.04;73.70;101888.53;5049318;28;20053;-48
2021/04/22 01:38:38;;;;;;;39.20;19.35;;;;;;;9.04;73.79;101889.38;5050886;28;20052;-48
2021/04/22 01:41:05;;;;;;;38.17;18.75;;;;;;;9.05;73.49;101892.94;5050800;28;20049;-48
2021/04/22 01:43:32;;;;;;;42.92;20.25;;;;;;;9.00;73.58;101898.59;5067768;28;20041;-47
2021/04/22 01:45:59;;;;;;;46.75;20.70;;;;;;;9.00;73.62;101899.38;5063855;28;20041;-47
2021/04/22 01:48:27;;;;;;;44.97;20.63;;;;;;;9.00;73.88;101899.38;5067249;28;20080;-47
2021/04/22 01:50:54;;;;;;;40.75;21.15;;;;;;;8.96;73.91;101900.31;5068964;28;20032;-47
2021/04/22 01:53:22;;;;;;;48.47;23.05;;;;;;;8.94;74.16;101911.66;5051131;28;20076;-48
2021/04/22 01:55:50;;;;;;;51.53;23.13;;;;;;;8.91;74.20;101897.63;5053450;28;20052;-47
2021/04/22 01:58:20;;;;;;;49.55;22.38;;;;;;;8.85;74.27;101904.38;5052192;28;20155;-48
2021/04/22 02:00:53;;;;;;;52.78;21.63;;;;;;;8.80;74.68;101904.47;5053805;28;20036;-48
2021/04/22 02:03:21;;;;;;;47.17;21.63;;;;;;;8.81;74.46;101909.72;5056848;28;20065;-50
2021/04/22 02:05:48;;;;;;;43.15;21.98;;;;;;;8.81;74.29;101912.47;5056716;28;20127;-49
2021/04/22 02:08:14;;;;;;;44.85;22.38;;;;;;;8.83;74.50;101909.41;5053820;28;20072;-51
2021/04/22 02:10:42;;;;;;;44.38;21.33;;;;;;;8.78;74.51;101915.84;5053942;28;20459;-48
2021/04/22 02:13:11;;;;;;;44.55;22.85;;;;;;;8.76;74.59;101912.56;5063000;28;20102;-48
2021/04/22 02:15:38;;;;;;;37.17;21.98;;;;;;;8.75;74.77;101908.16;5053440;28;20045;-47
2021/04/22 02:18:05;;;;;;;46.50;23.08;;;;;;;8.72;74.67;101913.47;5053677;28;20100;-50
2021/04/22 02:20:34;;;;;;;36.17;20.58;;;;;;;8.71;74.60;101920.91;5053796;28;20048;-49
2021/04/22 02:23:02;;;;;;;38.03;20.90;;;;;;;8.66;74.88;101912.72;5072629;28;20116;-49
2021/04/22 02:25:29;;;;;;;41.70;21.55;;;;;;;8.66;74.97;101915.50;5069805;28;20155;-48
2021/04/22 02:27:56;;;;;;;47.13;24.17;;;;;;;8.64;74.84;101906.72;5058958;28;20095;-48
2021/04/22 02:30:31;;;;;;;40.60;23.00;;;;;;;8.63;75.08;101913.34;5055670;28;20044;-48
2021/04/22 02:33:03;;;;;;;37.05;20.65;;;;;;;8.64;74.83;101911.41;5053086;28;20124;-49
2021/04/22 02:35:30;;;;;;;;;;;;;;;8.60;74.97;101916.72;5054203;28;20082;-50
2021/04/22 02:37:58;;;;;;;35.45;19.35;;;;;;;8.60;74.94;101910.38;5053341;28;19971;-49
2021/04/22 02:40:27;;;;;;;36.15;21.00;;;;;;;8.57;74.97;101909.88;5052974;28;20064;-47
2021/04/22 02:42:55;;;;;;;43.00;21.60;;;;;;;8.60;74.92;101915.91;5053209;28;20041;-47
2021/04/22 02:45:30;;;;;;;41.33;22.52;;;;;;;8.56;75.04;101921.22;5054548;28;20045;-48
2021/04/22 02:47:57;;;;;;;46.55;23.23;;;;;;;8.52;75.27;101920.19;5072436;28;20132;-47
2021/04/22 02:50:27;;;;;;;41.83;22.73;;;;;;;8.50;75.32;101916.88;5072603;28;20052;-47
2021/04/22 02:52:54;;;;;;;40.72;20.85;;;;;;;8.51;75.13;101924.06;5053090;28;20468;-49
2021/04/22 02:55:20;;;;;;;37.33;21.27;;;;;;;8.53;75.40;101930.09;5056584;28;20136;-48
2021/04/22 02:58:07;;;;;;;33.58;20.13;;;;;;;8.52;75.18;101926.50;5053137;28;20123;-49
2021/04/22 03:00:34;;;;;;;37.42;21.00;;;;;;;8.51;75.26;101933.16;5052651;28;20114;-52
2021/04/22 03:03:00;;;;;;;39.20;19.60;;;;;;;8.49;75.60;101934.59;5053021;28;20041;-49
2021/04/22 03:05:27;;;;;;;36.60;20.27;;;;;;;8.49;75.42;101942.88;5052882;28;20041;-51
2021/04/22 03:07:54;;;;;;;41.13;21.20;;;;;;;8.51;75.22;101943.38;5057346;28;20087;-49
2021/04/22 03:10:22;;;;;;;33.30;21.20;;;;;;;8.49;75.27;101938.19;5052779;28;20067;-51
2021/04/22 03:12:48;;;;;;;34.35;18.52;;;;;;;8.50;75.03;101936.22;5065924;28;20852;-49
2021/04/22 03:15:15;;;;;;;34.17;20.25;;;;;;;8.49;74.96;101935.41;5058065;28;20490;-48
2021/04/22 03:17:43;;;;;;;32.92;18.33;;;;;;;8.45;74.98;101930.78;5052680;28;20075;-48
2021/04/22 03:20:11;;;;;;;35.70;20.17;;;;;;;8.44;75.08;101931.91;5053340;28;20048;-50
2021/04/22 03:22:38;;;;;;;36.67;20.48;;;;;;;8.44;74.83;101935.50;5066219;28;20040;-50
2021/04/22 03:25:07;;;;;;;35.20;20.23;;;;;;;8.42;75.08;101931.38;5058860;28;20102;-53
2021/04/22 03:27:34;;;;;;;39.65;19.88;;;;;;;8.44;74.93;101929.16;5052198;28;20499;-48
2021/04/22 03:30:00;;;;;;;41.88;21.08;;;;;;;8.44;75.00;101935.50;5052212;28;20141;-48
2021/04/22 03:32:27;;;;;;;45.42;22.58;;;;;;;8.44;74.99;101924.47;5054913;28;20071;-48
2021/04/22 03:34:53;;;;;;;40.53;21.60;;;;;;;8.41;75.07;101929.75;5071779;28;20048;-47
2021/04/22 03:37:20;;;;;;;35.42;20.42;;;;;;;8.43;75.17;101935.78;5060034;28;20076;-47
2021/04/22 03:39:47;;;;;;;43.72;23.42;;;;;;;8.38;75.00;101931.19;5056866;28;20057;-49
2021/04/22 03:42:16;;;;;;;36.90;20.25;;;;;;;8.38;74.90;101935.88;5052588;28;20045;-54
2021/04/22 03:44:44;;;;;;;35.50;18.27;;;;;;;8.36;75.34;101932.59;5052641;28;20130;-48
2021/04/22 03:47:11;;;;;;;44.38;20.50;;;;;;;8.35;75.14;101931.78;5051649;28;20048;-49
2021/04/22 03:49:38;;;;;;;35.60;19.67;;;;;;;8.37;75.22;101934.22;5052327;28;20053;-49
2021/04/22 03:52:05;;;;;;;34.60;18.63;;;;;;;8.38;74.85;101933.13;5085217;28;20783;-50
2021/04/22 03:54:32;;;;;;;35.70;18.38;;;;;;;8.35;74.95;101925.44;5051662;28;20478;-48
2021/04/22 03:56:59;;;;;;;26.75;15.65;;;;;;;8.36;74.92;101930.66;5065317;28;20051;-48
2021/04/22 03:59:27;;;;;;;31.15;15.45;;;;;;;8.36;74.76;101916.06;5065036;28;20040;-49
2021/04/22 04:01:53;;;;;;;25.17;14.02;;;;;;;8.37;74.71;101918.50;5067287;28;20044;-50
2021/04/22 04:04:20;;;;;;;32.70;15.52;;;;;;;8.39;74.61;101926.50;5069645;28;20052;-47
2021/04/22 04:06:47;;;;;;;27.15;14.73;;;;;;;8.36;74.59;101927.09;5063108;28;20123;-47
2021/04/22 04:09:13;;;;;;;24.90;14.48;;;;;;;8.35;74.85;101922.69;5061504;28;20494;-52
2021/04/22 04:11:40;;;;;;;25.65;12.55;;;;;;;8.33;74.79;101922.16;5062407;28;20080;-49
2021/04/22 04:14:07;;;;;;;23.38;13.60;;;;;;;8.33;74.78;101916.66;5067376;28;20037;-49
2021/04/22 04:16:33;;;;;;;24.63;13.50;;;;;;;8.33;74.86;101919.41;5050882;28;20069;-49
2021/04/22 04:18:59;;;;;;;29.00;12.88;;;;;;;8.34;74.70;101926.56;5064596;28;20056;-50
2021/04/22 04:21:26;;;;;;;22.70;12.45;;;;;;;8.34;74.64;101918.31;5056961;28;20856;-49
2021/04/22 04:23:53;;;;;;;23.50;12.82;;;;;;;8.33;74.54;101916.66;5057418;28;20553;-54
2021/04/22 04:26:19;;;;;;;23.85;13.60;;;;;;;8.34;74.60;101915.53;5051525;28;20061;-50
2021/04/22 04:28:46;;;;;;;26.42;13.27;;;;;;;8.34;74.70;101912.78;5064170;28;20087;-48
2021/04/22 04:31:13;;;;;;;21.17;11.63;;;;;;;8.35;74.58;101914.41;5071690;28;20056;-49
2021/04/22 04:33:39;;;;;;;23.88;13.20;;;;;;;8.32;74.66;101912.25;5071234;28;20115;-48
2021/04/22 04:36:06;;;;;;;24.70;13.27;;;;;;;8.33;74.50;101919.41;5071558;28;20049;-49
2021/04/22 04:38:33;;;;;;;26.13;13.57;;;;;;;8.33;74.16;101922.16;5070369;28;20415;-48
2021/04/22 04:40:59;;;;;;;23.73;13.73;;;;;;;8.29;74.25;101918.34;5066882;28;20064;-48
2021/04/22 04:43:26;;;;;;;22.55;12.98;;;;;;;8.26;74.34;101924.47;5064745;28;20072;-48
2021/04/22 04:45:52;;;;;;;34.10;14.13;;;;;;;8.25;74.40;101922.81;5056976;28;20059;-47
2021/04/22 04:48:18;;;;;;;25.90;13.32;;;;;;;8.24;74.29;101924.75;5051404;28;20048;-50
2021/04/22 04:50:45;;;;;;;23.13;11.82;;;;;;;8.22;74.25;101929.75;5058121;28;20489;-48
2021/04/22 04:53:11;;;;;;;23.35;11.70;;;;;;;8.14;74.36;101924.09;5087496;28;20131;-47
2021/04/22 04:55:38;;;;;;;21.92;12.50;;;;;;;8.08;74.46;101926.13;5050459;28;20106;-47
2021/04/22 04:58:04;;;;;;;21.50;10.45;;;;;;;8.05;74.70;101946.00;5050015;28;20099;-47
2021/04/22 05:00:30;;;;;;;24.83;11.15;;;;;;;8.03;74.70;101939.16;5051639;28;20068;-47
2021/04/22 05:02:56;;;;;;;21.67;10.18;;;;;;;7.96;74.87;101940.38;5051781;28;20037;-49
2021/04/22 05:05:23;;;;;;;21.38;10.95;;;;;;;7.92;74.64;101939.31;5051431;28;20060;-48
2021/04/22 05:07:49;;;;;;;22.15;12.48;;;;;;;7.90;75.06;101949.84;5051165;28;20040;-47
2021/04/22 05:10:16;;;;;;;20.30;11.35;;;;;;;7.90;74.52;101951.78;5050964;28;20053;-49
2021/04/22 05:12:42;;;;;;;27.23;12.00;;;;;;;7.88;74.60;101954.00;5054814;28;20060;-47
2021/04/22 05:15:10;;;;;;;18.88;11.60;;;;;;;7.89;74.61;101952.88;5051138;28;20079;-47
2021/04/22 05:17:36;;;;;;;27.85;11.38;;;;;;;7.85;74.55;101955.44;5050856;28;20103;-47
2021/04/22 05:20:05;;;;;;;20.52;11.30;;;;;;;7.85;74.67;101960.94;5051020;28;20095;-48
2021/04/22 05:22:32;;;;;;;26.48;12.27;;;;;;;7.83;75.03;101965.94;5055509;28;20095;-47
2021/04/22 05:24:58;;;;;;;25.63;11.43;;;;;;;7.85;74.84;101965.63;5055275;28;20044;-51
2021/04/22 05:27:24;;;;;;;18.90;10.93;;;;;;;7.83;75.17;101970.63;5068116;28;20140;-47
2021/04/22 05:29:52;;;;;;;25.98;13.82;;;;;;;7.79;74.79;101973.16;5051018;28;20082;-47
2021/04/22 05:32:19;;;;;;;27.33;11.32;;;;;;;7.77;74.94;101978.16;5069265;28;20506;-50
2021/04/22 05:34:46;;;;;;;25.55;11.73;;;;;;;7.77;75.12;101969.88;5054266;28;20045;-49
2021/04/22 05:37:18;;;;;;;22.48;10.32;;;;;;;7.77;75.30;101969.03;5067662;28;20044;-47
2021/04/22 05:39:45;;;;;;;23.85;10.30;;;;;;;7.79;75.18;101975.91;5060001;28;20067;-49
2021/04/22 05:42:11;;;;;;;20.30;10.27;;;;;;;7.80;75.39;101972.03;5055015;28;20077;-49
2021/04/22 05:44:37;;;;;;;25.33;10.13;;;;;;;7.81;75.27;101981.94;5054401;28;20441;-48
2021/04/22 05:47:04;;;;;;;13.90;9.20;;;;;;;7.83;75.75;101982.47;5063066;28;20137;-47
2021/04/22 05:49:31;;;;;;;23.25;9.57;;;;;;;7.89;75.65;101984.03;5071846;28;20045;-50
2021/04/22 05:51:57;;;;;;;19.10;10.50;;;;;;;7.90;75.67;101996.72;5063187;28;20044;-49
2021/04/22 05:54:26;;;;;;;25.77;10.38;;;;;;;7.91;75.92;101998.38;5053975;28;20033;-48
2021/04/22 05:56:53;;;;;;;28.20;9.57;;;;;;;7.97;75.96;101993.56;5054398;28;20094;-48
2021/04/22 05:59:19;;;;;;;25.77;9.15;;;;;;;8.03;75.92;101995.16;5053641;28;20068;-50
2021/04/22 06:01:45;;;;;;;23.83;10.07;;;;;;;8.08;75.92;101991.47;5053824;28;20047;-47
2021/04/22 06:04:12;;;;;;;23.65;9.20;;;;;;;8.12;75.87;101993.38;5053440;28;20060;-48
2021/04/22 06:06:38;;;;;;;19.42;9.27;;;;;;;8.17;75.96;101989.72;5073716;28;20045;-50
2021/04/22 06:09:05;;;;;;;21.58;10.00;;;;;;;8.24;76.10;101990.97;5061237;28;20033;-50
2021/04/22 06:11:31;;;;;;;17.35;8.68;;;;;;;8.28;75.92;102003.09;5054594;28;20045;-48
2021/04/22 06:13:58;;;;;;;21.42;9.30;;;;;;;8.35;76.25;101997.19;5053569;28;20063;-48
2021/04/22 06:16:25;;;;;;;16.83;8.95;;;;;;;8.39;76.25;101992.72;5053518;28;20067;-50
2021/04/22 06:18:52;;;;;;;32.30;12.40;;;;;;;8.48;76.29;102004.69;5053819;28;20505;-47
2021/04/22 06:21:18;;;;;;;20.20;9.80;;;;;;;8.53;75.98;102004.59;5053717;28;20091;-49
2021/04/22 06:23:45;;;;;;;35.13;12.25;;;;;;;8.59;76.28;102008.94;5077363;28;20041;-49
2021/04/22 06:26:11;;;;;;;20.33;9.13;;;;;;;8.64;76.45;102011.59;5054646;28;20057;-54
2021/04/22 06:28:37;;;;;;;21.50;10.32;;;;;;;8.69;76.87;102014.28;5062397;28;20051;-50
2021/04/22 06:31:04;;;;;;;30.15;11.23;;;;;;;8.71;77.04;102012.03;5058842;28;20059;-51
2021/04/22 06:33:30;;;;;;;26.83;10.75;;;;;;;8.77;76.96;102015.53;5051557;28;20068;-48
2021/04/22 06:35:56;;;;;;;31.38;13.75;;;;;;;8.83;76.89;102020.69;5051457;28;20076;-50
2021/04/22 06:38:23;;;;;;;25.65;11.63;;;;;;;8.90;77.01;102014.75;5051405;28;20485;-50
2021/04/22 06:40:49;;;;;;;21.88;8.27;;;;;;;8.95;76.98;102018.25;5051373;28;20075;-48
2021/04/22 06:43:16;;;;;;;17.33;8.40;;;;;;;8.99;77.33;102024.81;5060366;28;20041;-48
2021/04/22 06:45:45;;;;;;;34.00;11.30;;;;;;;9.04;77.37;102024.72;5059560;28;20092;-51
2021/04/22 06:48:14;;;;;;;24.90;8.85;;;;;;;9.09;77.26;102021.88;5071213;28;20090;-49
2021/04/22 06:50:41;;;;;;;21.65;8.82;;;;;;;9.15;77.19;102025.34;5069137;28;20499;-47
2021/04/22 06:53:08;;;;;;;23.67;8.52;;;;;;;9.17;77.25;102028.63;5089063;28;20066;-49
2021/04/22 06:55:35;;;;;;;20.40;9.48;;;;;;;9.21;77.52;102035.19;5051507;28;20086;-52
2021/04/22 06:58:03;;;;;;;23.15;9.00;;;;;;;9.24;77.56;102034.56;5054630;28;20049;-53
2021/04/22 07:00:36;;;;;;;22.55;9.82;;;;;;;9.27;77.46;102025.66;5058653;28;20631;-50
2021/04/22 07:03:02;;;;;;;18.27;6.97;;;;;;;9.31;77.43;102036.94;5049857;28;20916;-48
2021/04/22 07:05:29;;;;;;;23.88;7.90;;;;;;;9.36;77.34;102034.06;5050427;28;20490;-51
2021/04/22 07:07:56;;;;;;;18.65;7.03;;;;;;;9.38;77.33;102035.41;5050487;28;20045;-49
2021/04/22 07:10:23;;;;;;;27.67;9.32;;;;;;;9.41;77.34;102033.97;5053444;28;20468;-51
2021/04/22 07:12:49;;;;;;;18.40;6.90;;;;;;;9.43;77.27;102031.72;5055115;28;20120;-51
2021/04/22 07:15:16;;;;;;;25.45;9.27;;;;;;;9.44;77.10;102033.38;5068933;28;20134;-48
2021/04/22 07:17:49;;;;;;;23.65;7.03;;;;;;;9.44;77.20;102036.97;5070386;28;20051;-47
2021/04/22 07:20:17;;;;;;;17.83;7.15;;;;;;;9.49;77.06;102047.09;5051046;28;20441;-52
2021/04/22 07:22:55;;;;;;;18.08;6.60;;;;;;;9.52;76.80;102036.25;5065597;28;20079;-54
2021/04/22 07:25:24;;;;;;;22.35;7.60;;;;;;;9.53;76.67;102046.16;5062973;28;20043;-48
2021/04/22 07:27:51;;;;;;;18.42;7.40;;;;;;;9.58;76.39;102043.28;5050881;28;20053;-50
2021/04/22 07:30:18;;;;;;;27.45;7.43;;;;;;;9.63;76.47;102045.16;5069667;28;20076;-47
2021/04/22 07:32:45;;;;;;;17.35;6.72;;;;;;;9.65;76.44;102045.66;5067906;28;20048;-47
2021/04/22 07:35:14;;;;;;;25.40;7.45;;;;;;;9.70;76.30;102040.84;5061775;28;20096;-47
2021/04/22 07:37:41;;;;;;;22.55;6.53;;;;;;;9.77;76.45;102040.41;5061929;28;20045;-48
2021/04/22 07:40:10;;;;;;;25.65;7.70;;;;;;;9.82;76.36;102040.34;5050580;28;20048;-49
2021/04/22 07:42:37;;;;;;;16.67;6.90;;;;;;;9.87;76.24;102044.94;5048758;28;20051;-49
2021/04/22 07:45:04;;;;;;;19.45;6.88;;;;;;;9.90;76.02;102044.31;5068415;28;20048;-49
2021/04/22 07:47:31;;;;;;;20.58;8.65;;;;;;;9.95;76.00;102050.56;5069826;28;20051;-48
2021/04/22 07:49:57;;;;;;;18.55;6.38;;;;;;;10.01;75.61;102046.53;5068978;28;20448;-49
2021/04/22 07:52:24;;;;;;;19.70;6.47;;;;;;;10.08;75.60;102043.38;5062250;28;20049;-48
2021/04/22 07:54:50;;;;;;;18.45;6.85;;;;;;;10.16;75.47;102043.50;5061415;28;20105;-53
2021/04/22 07:57:17;;;;;;;18.08;6.45;;;;;;;10.25;75.27;102040.78;5056600;28;20123;-50
2021/04/22 07:59:43;;;;;;;18.15;5.90;;;;;;;10.35;75.33;102052.44;5059252;28;20095;-51
2021/04/22 08:02:29;;;;;;;15.40;6.10;;;;;;;10.50;75.19;102047.69;5060520;28;20045;-48
2021/04/22 08:04:56;;;;;;;21.20;6.75;;;;;;;10.63;75.33;102049.59;5058778;28;20045;-48
2021/04/22 08:07:23;;;;;;;15.50;5.97;;;;;;;10.76;74.95;102051.47;5059247;28;20041;-51
2021/04/22 08:09:49;;;;;;;17.90;6.20;;;;;;;10.86;74.74;102056.75;5052192;28;20041;-48
2021/04/22 08:12:15;;;;;;;14.48;6.32;;;;;;;11.02;75.32;102049.69;5052338;28;20147;-55
2021/04/22 08:14:42;;;;;;;23.27;7.05;;;;;;;11.18;75.48;102053.72;5065892;28;20539;-49
2021/04/22 08:17:09;;;;;;;23.65;8.65;;;;;;;11.35;75.48;102055.78;5060807;28;20124;-52
2021/04/22 08:19:36;;;;;;;17.25;6.65;;;;;;;11.52;76.46;102051.13;5068562;28;20410;-47
2021/04/22 08:22:03;;;;;;;16.52;6.85;;;;;;;11.71;76.49;102061.16;5073576;28;20390;-47
2021/04/22 08:24:29;;;;;;;18.55;6.75;;;;;;;11.95;76.82;102056.03;5062388;28;20077;-53
2021/04/22 08:26:57;;;;;;;14.60;6.10;;;;;;;12.25;76.37;102059.84;5057745;28;20045;-49
2021/04/22 08:29:24;;;;;;;16.17;6.32;;;;;;;12.64;75.33;102063.31;5059710;28;20111;-47
2021/04/22 08:31:50;;;;;;;13.13;5.53;;;;;;;13.14;74.69;102060.00;5052190;28;20061;-54
2021/04/22 08:34:16;;;;;;;17.88;6.43;;;;;;;13.73;73.32;102070.13;5046189;28;20448;-51
2021/04/22 08:36:45;;;;;;;14.85;5.20;;;;;;;14.39;71.20;102062.06;5049973;28;20103;-50
2021/04/22 08:39:14;;;;;;;18.30;6.38;;;;;;;14.99;68.87;102062.34;5054470;28;20032;-50
2021/04/22 08:41:41;;;;;;;24.20;7.25;;;;;;;15.57;67.17;102068.78;5049517;28;20071;-50
2021/04/22 08:44:08;;;;;;;16.55;6.13;;;;;;;16.03;65.44;102070.34;5062771;28;20064;-50
2021/04/22 08:46:39;;;;;;;20.33;6.53;;;;;;;16.41;63.39;102065.97;5068377;28;20121;-51
2021/04/22 08:49:07;;;;;;;15.75;5.70;;;;;;;16.83;62.16;102065.66;5052915;28;20041;-48
2021/04/22 08:51:33;;;;;;;14.13;5.07;;;;;;;17.27;60.82;102072.09;5064262;28;20127;-54
2021/04/22 08:54:03;;;;;;;16.15;5.50;;;;;;;17.61;59.48;102063.84;5068282;28;20475;-49
2021/04/22 08:56:36;;;;;;;15.57;5.27;;;;;;;17.72;58.48;102068.91;5058848;28;20041;-50
2021/04/22 08:59:05;;;;;;;20.02;6.07;;;;;;;17.95;57.34;102069.91;5059364;28;20068;-50
2021/04/22 09:01:34;;;;;;;16.25;5.30;;;;;;;17.89;56.29;102074.16;5050372;28;20398;-51
2021/04/22 09:04:05;;;;;;;13.90;5.70;;;;;;;17.90;55.45;102082.19;5048210;28;20053;-50
2021/04/22 09:06:36;;;;;;;19.17;4.40;;;;;;;18.04;53.87;102081.72;5050172;28;20044;-49
2021/04/22 09:09:08;;;;;;;11.73;5.13;;;;;;;18.25;53.79;102079.41;5053457;28;20049;-52
2021/04/22 09:11:42;;;;;;;13.45;5.05;;;;;;;18.41;52.60;102071.78;5072442;28;20444;-54
2021/04/22 09:14:16;;;;;;;13.70;4.88;;;;;;;18.54;52.59;102072.50;5069467;28;20051;-50
2021/04/22 09:16:43;;;;;;;11.95;4.35;;;;;;;18.52;52.00;102072.06;5055838;28;20045;-49
2021/04/22 09:19:16;;;;;;;14.40;4.75;;;;;;;18.66;51.16;102077.97;5067132;28;20454;-50
2021/04/22 09:21:50;;;;;;;14.13;5.38;;;;;;;18.69;50.57;102068.84;5059365;28;20040;-49
2021/04/22 09:24:19;;;;;;;13.18;5.05;;;;;;;18.83;50.44;102069.94;5082571;28;20040;-49
2021/04/22 09:26:50;;;;;;;22.30;5.68;;;;;;;18.89;49.19;102067.66;5057586;28;20114;-47
2021/04/22 09:29:34;;;;;;;14.98;4.53;;;;;;;18.99;48.78;102077.44;5052883;28;20068;-49
2021/04/22 09:32:21;;;;;;;9.13;3.97;;;;;;;19.14;48.39;102068.94;5061900;28;20045;-48
2021/04/22 09:35:00;;;;;;;17.35;4.75;;;;;;;19.21;47.59;102073.91;5061610;28;20094;-50
2021/04/22 09:37:55;;;;;;;18.90;5.70;;;;;;;19.12;46.51;102081.72;5069876;28;20794;-50
2021/04/22 09:40:37;;;;;;;14.43;4.30;;;;;;;19.08;47.40;102075.25;5039018;28;20091;-50
2021/04/22 09:43:08;;;;;;;13.02;4.90;;;;;;;19.23;48.06;102072.34;5055764;28;20068;-49
2021/04/22 09:45:35;;;;;;;11.38;3.80;;;;;;;19.28;47.94;102085.25;5066763;28;20044;-51
2021/04/22 09:48:19;;;;;;;19.73;5.50;;;;;;;19.16;47.06;102072.22;5067302;28;20048;-49
2021/04/22 09:50:47;;;;;;;23.60;5.75;;;;;;;19.10;47.22;102081.28;5070216;28;20044;-49
2021/04/22 09:53:17;;;;;;;11.80;4.85;;;;;;;18.94;45.66;102075.75;5059672;28;20068;-46
2021/04/22 09:55:46;;;;;;;7.32;3.88;;;;;;;18.91;47.01;102073.69;5051290;28;20045;-53
2021/04/22 09:58:23;;;;;;;14.50;4.40;;;;;;;19.17;44.54;102073.00;5052212;28;20110;-49
2021/04/22 10:00:50;;;;;;;12.30;5.20;;;;;;;19.34;46.15;102073.34;5061575;28;20481;-51
2021/04/22 10:03:16;;;;;;;10.15;4.40;;;;;;;19.39;45.52;102072.25;5051952;28;20079;-50
2021/04/22 10:05:42;;;;;;;8.25;3.80;;;;;;;19.43;45.59;102081.59;5051510;28;20079;-52
2021/04/22 10:08:15;;;;;;;16.63;4.70;;;;;;;19.46;45.19;102080.03;5052030;28;20406;-47
2021/04/22 10:11:03;;;;;;;8.43;3.75;;;;;;;19.33;43.00;102093.38;5052205;28;20132;-51
2021/04/22 10:13:42;;;;;;;18.27;5.03;;;;;;;19.21;43.22;102082.31;5055377;28;20652;-49
2021/04/22 10:16:10;;;;;;;10.05;3.92;;;;;;;19.14;44.36;102080.16;5051556;28;20048;-51
2021/04/22 10:18:45;;;;;;;13.88;4.60;;;;;;;19.08;43.61;102076.06;5050820;28;20110;-48
2021/04/22 10:21:13;;;;;;;11.82;4.72;;;;;;;19.06;43.74;102075.59;5064320;28;20056;-50
2021/04/22 10:23:41;;;;;;;11.73;5.05;;;;;;;18.92;43.64;102078.13;5076484;28;20052;-49
2021/04/22 10:26:21;;;;;;;13.25;4.63;;;;;;;18.81;43.86;102077.91;5052327;28;20076;-51
2021/04/22 10:28:49;;;;;;;10.13;3.65;;;;;;;18.93;43.80;102073.34;5051137;28;20818;-53
2021/04/22 10:31:15;;;;;;;12.30;4.43;;;;;;;18.94;43.88;102072.97;5050829;28;20071;-50
2021/04/22 10:33:42;;;;;;;16.55;5.25;;;;;;;18.82;43.60;102070.31;5057914;28;20037;-49
2021/04/22 10:36:10;;;;;;;14.50;4.03;;;;;;;18.84;43.86;102065.97;5059701;28;20033;-47
2021/04/22 10:38:38;;;;;;;11.57;4.82;;;;;;;18.73;44.08;102072.50;5071361;28;20109;-48
2021/04/22 10:41:05;;;;;;;15.80;5.70;;;;;;;18.48;44.12;102069.16;5060767;28;20048;-49
2021/04/22 10:43:33;;;;;;;13.18;4.78;;;;;;;18.48;44.21;102074.78;5065018;28;20060;-48
2021/04/22 10:45:59;;;;;;;11.02;4.57;;;;;;;18.36;44.26;102080.47;5068810;28;20478;-50
2021/04/22 10:48:26;;;;;;;11.70;5.13;;;;;;;18.23;44.28;102076.19;5051138;28;20522;-49
2021/04/22 10:50:53;;;;;;;15.65;5.32;;;;;;;18.02;44.07;102073.69;5059237;28;20123;-48
2021/04/22 10:53:22;;;;;;;17.42;5.82;;;;;;;17.81;43.57;102069.53;5062459;28;20130;-51
2021/04/22 10:55:53;;;;;;;15.60;6.97;;;;;;;17.61;42.96;102069.44;5052275;28;20059;-51
2021/04/22 10:58:24;;;;;;;12.50;5.80;;;;;;;17.48;43.59;102059.47;5061430;28;20045;-50
2021/04/22 11:01:03;;;;;;;12.10;5.72;;;;;;;17.52;43.46;102076.38;5065537;28;20044;-47
2021/04/22 11:03:33;;;;;;;13.45;5.35;;;;;;;17.36;43.93;102065.16;5058145;28;20430;-47
2021/04/22 11:06:01;;;;;;;17.88;5.40;;;;;;;17.21;44.35;102068.72;5065843;28;20152;-50
2021/04/22 11:08:41;;;;;;;13.95;4.78;;;;;;;17.08;44.01;102061.56;5049162;28;20066;-48
2021/04/22 11:11:24;;;;;;;;;;;;;;;16.75;45.25;102075.00;5059609;28;20445;-49
2021/04/22 11:14:05;;;;;;;11.73;5.90;;;;;;;16.58;45.30;102058.50;5058026;28;19924;-52
2021/04/22 11:16:34;;;;;;;15.15;4.63;;;;;;;16.41;46.19;102068.75;5050306;28;20064;-50
2021/04/22 11:19:01;;;;;;;16.73;6.60;;;;;;;16.25;46.53;102067.88;5066718;28;20103;-47
2021/04/22 11:21:36;;;;;;;14.80;5.20;;;;;;;16.10;46.24;102068.59;5065756;28;20079;-45
2021/04/22 11:24:04;;;;;;;11.27;4.97;;;;;;;15.92;46.74;102081.16;5069537;28;20044;-48